Time;durP1;ratioP1;P1;durP2;ratioP2;P2;SDS_P1;SDS_P2;PMS_P1;PMS_P2;Temp;Humidity;BMP_temperature;BMP_pressure;BME280_temperature;BME280_humidity;BME280_pressure;Samples;Min_cycle;Max_cycle;Signal;HPM_P1;HPM_P2
2022/11/18 00:01:32;;;;;;;0.52;0.40;;;;;;;18.56;41.40;101078.56;4753462;30;20154;-89
2022/11/18 00:03:58;;;;;;;0.50;0.40;;;;;;;18.48;41.32;101074.25;4769381;30;20089;-88
2022/11/18 00:06:25;;;;;;;0.30;0.30;;;;;;;18.50;41.12;101077.53;4769375;30;20075;-88
2022/11/18 00:08:57;;;;;;;0.30;0.30;;;;;;;18.56;41.34;101090.19;4753674;30;20047;-88
2022/11/18 00:14:22;;;;;;;0.47;0.38;;;;;;;18.52;40.96;101089.00;4769691;30;20047;-88
2022/11/18 00:16:59;;;;;;;1.85;0.40;;;;;;;18.51;41.18;101081.09;4739439;30;20036;-88
2022/11/18 00:19:27;;;;;;;0.50;0.30;;;;;;;18.57;41.45;101091.88;4753696;30;20040;-88
2022/11/18 00:21:53;;;;;;;0.30;0.30;;;;;;;18.54;41.08;101091.47;4753337;30;20116;-88
2022/11/18 00:24:19;;;;;;;0.47;0.38;;;;;;;18.58;41.19;101084.56;4753055;30;20081;-88
2022/11/18 00:26:45;;;;;;;0.50;0.40;;;;;;;18.50;41.16;101069.44;4769339;30;20035;-88
2022/11/18 00:29:11;;;;;;;0.47;0.30;;;;;;;18.53;41.10;101079.81;4753399;30;20035;-88
2022/11/18 00:31:37;;;;;;;0.38;0.38;;;;;;;18.56;41.35;101075.84;4753397;30;20549;-88
2022/11/18 00:34:05;;;;;;;0.80;0.40;;;;;;;18.46;41.20;101062.81;4752873;30;20389;-88
2022/11/18 00:36:31;;;;;;;0.43;0.30;;;;;;;18.48;41.24;101063.41;4769040;30;20028;-88
2022/11/18 00:38:57;;;;;;;0.98;0.40;;;;;;;18.49;41.03;101066.94;4753473;30;20032;-88
2022/11/18 00:41:22;;;;;;;0.30;0.30;;;;;;;18.53;41.24;101068.97;4769087;30;20038;-88
2022/11/18 00:43:48;;;;;;;0.35;0.32;;;;;;;18.44;41.18;101067.63;4753208;30;20065;-88
2022/11/18 00:46:14;;;;;;;0.45;0.30;;;;;;;18.47;41.24;101069.06;4768700;30;20059;-88
2022/11/18 00:48:39;;;;;;;0.40;0.40;;;;;;;18.57;41.04;101081.03;4738628;30;20545;-88
2022/11/18 00:51:13;;;;;;;0.60;0.30;;;;;;;18.51;41.25;101076.50;4723746;30;20107;-88
2022/11/18 00:53:39;;;;;;;0.68;0.45;;;;;;;18.53;41.07;101073.59;4753470;30;20028;-88
2022/11/18 00:56:08;;;;;;;0.30;0.30;;;;;;;18.48;41.24;101076.13;4752628;30;20066;-88
2022/11/18 00:58:34;;;;;;;0.30;0.30;;;;;;;18.47;41.12;101058.22;4768685;30;20035;-88
2022/11/18 01:00:59;;;;;;;0.40;0.32;;;;;;;18.50;41.15;101079.44;4768873;30;20099;-88
2022/11/18 01:03:26;;;;;;;1.15;0.50;;;;;;;18.57;41.24;101075.63;4752669;30;20032;-88
2022/11/18 01:05:52;;;;;;;0.47;0.30;;;;;;;18.57;41.14;101080.19;4768818;30;20499;-88
2022/11/18 01:08:19;;;;;;;0.50;0.43;;;;;;;18.52;41.13;101078.19;4768610;30;20032;-89
2022/11/18 01:10:44;;;;;;;0.60;0.40;;;;;;;18.53;41.06;101063.56;4769761;30;20028;-88
2022/11/18 01:13:18;;;;;;;0.20;0.20;;;;;;;18.49;41.10;101062.38;4756345;30;20399;-88
2022/11/18 01:15:51;;;;;;;0.50;0.40;;;;;;;18.50;41.02;101058.59;4772576;30;20036;-88
2022/11/18 01:18:18;;;;;;;0.22;0.22;;;;;;;18.53;41.15;101068.97;4741548;30;20055;-88
2022/11/18 01:20:44;;;;;;;0.57;0.40;;;;;;;18.54;41.06;101064.38;4741960;30;20111;-88
2022/11/18 01:23:09;;;;;;;0.52;0.40;;;;;;;18.48;41.18;101055.28;4727244;30;20028;-88
2022/11/18 01:25:36;;;;;;;0.73;0.30;;;;;;;18.58;41.18;101071.03;4741415;30;20094;-89
2022/11/18 01:28:02;;;;;;;0.43;0.30;;;;;;;18.53;41.06;101058.16;4755871;30;20032;-88
2022/11/18 01:30:28;;;;;;;0.63;0.30;;;;;;;18.54;41.28;101057.13;4771980;30;20038;-89
2022/11/18 01:32:53;;;;;;;0.55;0.40;;;;;;;18.52;41.03;101052.97;4772109;30;20024;-88
2022/11/18 01:35:19;;;;;;;0.30;0.30;;;;;;;18.53;41.21;101057.34;4771815;30;20157;-88
2022/11/18 01:37:45;;;;;;;0.30;0.30;;;;;;;18.53;41.06;101057.34;4756162;30;20110;-88
2022/11/18 01:40:11;;;;;;;0.20;0.20;;;;;;;18.51;41.02;101052.16;4741028;30;20028;-88
2022/11/18 01:42:37;;;;;;;0.47;0.40;;;;;;;18.49;41.10;101046.13;4756010;30;20448;-88
2022/11/18 01:45:08;;;;;;;0.50;0.30;;;;;;;18.61;40.98;101061.63;4756020;30;20047;-88
2022/11/18 01:47:43;;;;;;;0.30;0.30;;;;;;;18.55;41.07;101061.47;4771442;30;20491;-89
2022/11/18 01:50:09;;;;;;;0.43;0.32;;;;;;;18.53;41.10;101060.03;4755914;30;20027;-88
2022/11/18 01:52:35;;;;;;;1.27;0.40;;;;;;;18.50;41.08;101053.19;4755218;30;20107;-88
2022/11/18 01:55:13;;;;;;;0.30;0.30;;;;;;;18.54;41.06;101062.53;4755218;30;20051;-88
2022/11/18 01:57:39;;;;;;;0.35;0.25;;;;;;;18.52;41.02;101048.41;4740911;30;20050;-88
2022/11/18 02:00:08;;;;;;;0.43;0.30;;;;;;;18.54;40.87;101054.41;4740636;30;20032;-89
2022/11/18 02:02:35;;;;;;;0.22;0.22;;;;;;;18.60;40.92;101068.09;4771543;30;20377;-88
2022/11/18 02:05:02;;;;;;;0.60;0.30;;;;;;;18.53;41.07;101063.56;4771307;30;20035;-88
2022/11/18 02:07:27;;;;;;;0.40;0.30;;;;;;;18.56;41.03;101067.72;4771478;30;20516;-88
2022/11/18 02:09:53;;;;;;;0.90;0.40;;;;;;;18.54;41.03;101050.84;4771385;30;20115;-89
2022/11/18 02:12:19;;;;;;;0.57;0.30;;;;;;;18.53;41.02;101050.03;4755431;30;20113;-88
2022/11/18 02:14:45;;;;;;;0.20;0.20;;;;;;;18.55;41.21;101061.47;4755506;30;20032;-88
2022/11/18 02:17:30;;;;;;;0.93;0.30;;;;;;;18.58;40.96;101055.59;4740823;30;20123;-88
2022/11/18 02:20:07;;;;;;;0.30;0.30;;;;;;;18.61;40.98;101053.50;4755929;30;20503;-88
2022/11/18 02:23:17;;;;;;;0.20;0.20;;;;;;;18.61;40.94;101061.63;4754431;30;20039;-89
2022/11/18 02:26:08;;;;;;;0.60;0.40;;;;;;;18.61;40.91;101064.31;4730231;30;20506;-88
2022/11/18 02:28:53;;;;;;;0.35;0.30;;;;;;;18.61;40.98;101058.91;4770866;30;20067;-88
2022/11/18 02:31:30;;;;;;;0.43;0.22;;;;;;;18.60;40.92;101059.97;4754918;30;20063;-88
2022/11/18 02:34:23;;;;;;;0.30;0.30;;;;;;;18.60;41.06;101057.28;4754457;30;20083;-88
2022/11/18 02:36:56;;;;;;;0.20;0.20;;;;;;;18.56;41.18;101057.72;4742198;30;20455;-88
2022/11/18 02:39:25;;;;;;;0.38;0.38;;;;;;;18.62;40.96;101055.16;4755251;30;20060;-89
2022/11/18 02:41:50;;;;;;;0.40;0.30;;;;;;;18.58;41.04;101050.19;4755095;30;20264;-88
2022/11/18 02:44:16;;;;;;;0.35;0.35;;;;;;;18.54;40.80;101051.72;4754938;30;20036;-88
2022/11/18 02:46:46;;;;;;;0.65;0.30;;;;;;;18.57;40.93;101056.69;4754773;30;20031;-88
2022/11/18 02:49:17;;;;;;;0.30;0.30;;;;;;;18.55;40.94;101056.03;4740277;30;20067;-88
2022/11/18 02:51:46;;;;;;;0.40;0.30;;;;;;;18.56;40.86;101059.59;4754717;30;20032;-87
2022/11/18 02:54:11;;;;;;;0.55;0.30;;;;;;;18.61;40.85;101067.88;4739926;30;20052;-88
2022/11/18 02:56:37;;;;;;;0.28;0.28;;;;;;;18.60;40.74;101070.81;4739897;30;20028;-88
2022/11/18 02:59:03;;;;;;;0.30;0.30;;;;;;;18.61;40.93;101064.31;4739721;30;20032;-88
2022/11/18 03:01:30;;;;;;;0.47;0.30;;;;;;;18.63;40.64;101067.66;4754601;30;20023;-88
2022/11/18 03:03:55;;;;;;;0.30;0.30;;;;;;;18.61;40.82;101061.63;4739707;30;20042;-88
2022/11/18 03:06:24;;;;;;;0.20;0.20;;;;;;;18.63;40.81;101067.66;4754334;30;20027;-88
2022/11/18 03:08:54;;;;;;;0.30;0.30;;;;;;;18.61;40.91;101067.03;4770286;30;20024;-88
2022/11/18 03:11:24;;;;;;;1.02;0.40;;;;;;;18.60;40.79;101054.56;4739772;30;20032;-88
2022/11/18 03:14:09;;;;;;;0.47;0.30;;;;;;;18.54;40.77;101049.00;4739629;30;20373;-88
2022/11/18 03:16:59;;;;;;;1.23;0.40;;;;;;;18.61;40.89;101053.50;4740474;30;20035;-88
2022/11/18 03:19:56;;;;;;;0.30;0.25;;;;;;;18.60;40.81;101062.69;4741297;30;20047;-88
2022/11/18 03:22:29;;;;;;;0.20;0.20;;;;;;;18.61;40.86;101061.63;4754088;30;20043;-88
2022/11/18 03:25:03;;;;;;;0.52;0.30;;;;;;;18.58;40.98;101063.72;4739243;30;20475;-88
2022/11/18 03:27:43;;;;;;;0.30;0.30;;;;;;;18.54;40.94;101059.81;4769911;30;20031;-88
2022/11/18 03:30:10;;;;;;;0.45;0.30;;;;;;;18.60;40.86;101068.91;4769647;30;20036;-88
2022/11/18 03:32:38;;;;;;;0.50;0.30;;;;;;;18.61;41.09;101062.47;4754396;30;20092;-88
2022/11/18 03:35:13;;;;;;;0.38;0.30;;;;;;;18.63;40.85;101073.06;4738103;30;20060;-88
2022/11/18 03:37:39;;;;;;;0.30;0.30;;;;;;;18.51;40.71;101046.72;4739580;30;20039;-88
2022/11/18 03:40:17;;;;;;;0.47;0.30;;;;;;;18.46;40.76;101035.75;4753963;30;20035;-88
2022/11/18 03:42:51;;;;;;;0.28;0.28;;;;;;;18.57;40.78;101053.97;4754036;30;20027;-88
2022/11/18 03:45:29;;;;;;;0.63;0.30;;;;;;;18.54;40.65;101048.16;4754875;30;20028;-88
2022/11/18 03:47:59;;;;;;;0.22;0.22;;;;;;;18.55;40.78;101039.81;4738967;30;20461;-88
2022/11/18 03:50:26;;;;;;;0.20;0.20;;;;;;;18.55;40.81;101052.53;4739191;30;20087;-88
2022/11/18 03:52:52;;;;;;;0.20;0.20;;;;;;;18.61;40.87;101053.50;4754020;30;20039;-88
2022/11/18 03:55:21;;;;;;;1.20;0.30;;;;;;;18.51;40.63;101046.72;4738872;30;20027;-88
2022/11/18 03:57:55;;;;;;;0.30;0.30;;;;;;;18.63;40.71;101051.41;4769624;30;20075;-88
2022/11/18 04:00:20;;;;;;;0.30;0.30;;;;;;;18.57;40.68;101037.72;4769563;30;20040;-88
2022/11/18 04:02:47;;;;;;;0.30;0.30;;;;;;;18.63;40.80;101054.13;4753460;30;20373;-88
2022/11/18 04:05:12;;;;;;;0.32;0.30;;;;;;;18.57;40.73;101042.28;4724126;30;20032;-88
2022/11/18 04:07:45;;;;;;;0.20;0.20;;;;;;;18.61;40.76;101050.78;4753636;30;20032;-88
2022/11/18 04:10:27;;;;;;;0.20;0.20;;;;;;;18.57;40.68;101053.13;4753679;30;20081;-88
2022/11/18 04:12:55;;;;;;;0.30;0.30;;;;;;;18.63;40.64;101052.22;4739743;30;20035;-88
2022/11/18 04:15:21;;;;;;;0.32;0.30;;;;;;;18.61;40.95;101050.78;4769208;30;20430;-88
2022/11/18 04:17:46;;;;;;;0.32;0.25;;;;;;;18.61;40.81;101039.97;4752924;30;20084;-88
2022/11/18 04:20:17;;;;;;;0.30;0.30;;;;;;;18.61;40.95;101046.22;4738569;30;20085;-88
2022/11/18 04:22:42;;;;;;;0.25;0.25;;;;;;;18.63;40.70;101040.59;4753172;30;20058;-89
2022/11/18 04:25:08;;;;;;;0.17;0.17;;;;;;;18.60;40.74;101039.16;4753246;30;20547;-88
2022/11/18 04:27:33;;;;;;;0.30;0.30;;;;;;;18.58;40.82;101036.66;4738971;30;20101;-88
2022/11/18 04:29:59;;;;;;;0.28;0.22;;;;;;;18.52;40.75;101032.16;4738782;30;20031;-89
2022/11/18 04:32:25;;;;;;;0.30;0.30;;;;;;;18.55;40.82;101022.75;4738881;30;20141;-88
2022/11/18 04:34:50;;;;;;;0.20;0.20;;;;;;;18.56;40.74;101036.06;4768861;30;20563;-88
2022/11/18 04:37:16;;;;;;;0.30;0.25;;;;;;;18.62;40.60;101033.50;4768921;30;20584;-88
2022/11/18 04:39:42;;;;;;;0.28;0.28;;;;;;;18.58;40.48;101030.44;4768965;30;20027;-87
2022/11/18 04:42:07;;;;;;;0.55;0.30;;;;;;;18.56;40.42;101025.22;4752986;30;20066;-88
2022/11/18 04:44:33;;;;;;;0.50;0.30;;;;;;;18.63;40.73;101035.19;4724060;30;20089;-88
2022/11/18 04:47:00;;;;;;;0.20;0.20;;;;;;;18.57;40.70;101026.91;4755923;30;20445;-88
2022/11/18 04:49:26;;;;;;;0.35;0.30;;;;;;;18.58;40.73;101025.00;4756772;30;20028;-88
2022/11/18 04:51:52;;;;;;;0.40;0.32;;;;;;;18.57;40.69;101026.91;4772812;30;20365;-88
2022/11/18 04:54:18;;;;;;;0.70;0.28;;;;;;;18.61;40.65;101029.13;4772525;30;20492;-88
2022/11/18 04:56:46;;;;;;;0.20;0.20;;;;;;;18.53;40.65;101020.25;4771291;30;20040;-88
2022/11/18 04:59:12;;;;;;;0.20;0.20;;;;;;;18.58;40.82;101025.84;4756249;30;20036;-87
2022/11/18 05:01:38;;;;;;;0.32;0.30;;;;;;;18.63;40.69;101036.00;4726978;30;20114;-88
2022/11/18 05:04:16;;;;;;;0.80;0.30;;;;;;;18.61;40.64;101026.44;4741524;30;20083;-88
2022/11/18 05:06:42;;;;;;;0.38;0.30;;;;;;;18.58;40.52;101028.53;4743216;30;20027;-88
2022/11/18 05:09:08;;;;;;;0.20;0.20;;;;;;;18.63;40.60;101037.88;4756410;30;20169;-88
2022/11/18 05:14:17;;;;;;;0.30;0.30;;;;;;;18.55;40.66;101034.41;4758896;30;20038;-88
2022/11/18 05:16:43;;;;;;;0.22;0.20;;;;;;;18.59;40.75;101034.78;4741560;30;20435;-87
2022/11/18 05:19:09;;;;;;;0.52;0.35;;;;;;;18.61;40.73;101037.25;4726853;30;20045;-88
2022/11/18 05:21:35;;;;;;;0.50;0.35;;;;;;;18.62;40.35;101044.34;4756124;30;20023;-88
2022/11/18 05:24:01;;;;;;;1.00;0.40;;;;;;;18.64;40.63;101047.63;4741397;30;20032;-88
2022/11/18 05:26:27;;;;;;;0.30;0.22;;;;;;;18.64;40.57;101042.22;4741489;30;20031;-88
2022/11/18 05:28:52;;;;;;;0.30;0.30;;;;;;;18.63;40.66;101049.53;4755869;30;20093;-88
2022/11/18 05:31:18;;;;;;;0.65;0.28;;;;;;;18.64;40.74;101048.47;4741292;30;20063;-88
2022/11/18 05:33:47;;;;;;;0.30;0.28;;;;;;;18.63;40.71;101046.81;4740931;30;20051;-88
2022/11/18 05:36:17;;;;;;;0.40;0.30;;;;;;;18.62;40.48;101044.34;4740852;30;20058;-88
2022/11/18 05:38:42;;;;;;;0.75;0.20;;;;;;;18.59;40.52;101053.72;4741194;30;20046;-88
2022/11/18 05:41:08;;;;;;;0.50;0.30;;;;;;;18.60;40.49;101049.16;4741774;30;20036;-88
2022/11/18 05:43:34;;;;;;;0.70;0.30;;;;;;;18.53;40.63;101054.63;4740958;30;20092;-87
2022/11/18 05:46:00;;;;;;;1.10;0.30;;;;;;;18.50;40.79;101060.50;4741347;30;20114;-87
2022/11/18 05:48:32;;;;;;;0.40;0.40;;;;;;;18.47;40.46;101064.47;4755761;30;20067;-87
2022/11/18 05:50:57;;;;;;;0.55;0.30;;;;;;;18.52;40.71;101070.06;4755701;30;20032;-87
2022/11/18 05:53:23;;;;;;;0.40;0.30;;;;;;;18.49;40.51;101062.38;4755245;30;20107;-87
2022/11/18 05:56:15;;;;;;;0.30;0.30;;;;;;;18.54;40.38;101065.25;4741048;30;20023;-87
2022/11/18 05:58:41;;;;;;;0.90;0.50;;;;;;;18.52;40.41;101071.91;4754545;30;20118;-87
2022/11/18 06:01:06;;;;;;;0.40;0.40;;;;;;;18.50;40.26;101064.00;4755614;30;20158;-87
2022/11/18 06:03:34;;;;;;;0.47;0.30;;;;;;;18.53;40.27;101068.97;4740974;30;20040;-87
2022/11/18 06:06:01;;;;;;;0.38;0.30;;;;;;;18.53;40.18;101074.41;4740732;30;20032;-87
2022/11/18 06:08:29;;;;;;;0.40;0.30;;;;;;;18.55;40.27;101077.69;4740774;30;20032;-88
2022/11/18 06:10:55;;;;;;;1.85;0.30;;;;;;;18.54;40.61;101076.06;4726155;30;20024;-87
2022/11/18 06:13:24;;;;;;;0.80;0.30;;;;;;;18.53;40.40;101071.69;4740567;30;20372;-87
2022/11/18 06:15:50;;;;;;;0.35;0.30;;;;;;;18.53;40.34;101079.81;4740882;30;20036;-87
2022/11/18 06:18:42;;;;;;;0.30;0.30;;;;;;;18.55;40.35;101082.28;4740503;30;20036;-87
2022/11/18 06:21:07;;;;;;;0.45;0.38;;;;;;;18.55;40.34;101083.13;4752733;30;20050;-87
2022/11/18 06:23:34;;;;;;;0.45;0.30;;;;;;;18.56;40.40;101089.38;4755123;30;20123;-87
2022/11/18 06:26:00;;;;;;;0.30;0.30;;;;;;;18.52;40.43;101080.88;4740625;30;20032;-87
2022/11/18 06:28:26;;;;;;;0.35;0.35;;;;;;;18.53;40.34;101087.94;4755383;30;20040;-87
2022/11/18 06:30:51;;;;;;;1.33;0.40;;;;;;;18.54;40.68;101091.47;4754801;30;20027;-88
2022/11/18 06:33:17;;;;;;;0.30;0.20;;;;;;;18.50;40.32;101082.13;4770853;30;20032;-88
2022/11/18 06:35:43;;;;;;;0.20;0.20;;;;;;;18.52;40.09;101082.75;4770709;30;20043;-87
2022/11/18 06:38:08;;;;;;;2.05;0.40;;;;;;;18.48;40.24;101085.06;4754448;30;20032;-87
2022/11/18 06:40:36;;;;;;;0.52;0.20;;;;;;;18.52;40.32;101091.72;4754503;30;20055;-87
2022/11/18 06:48:44;;;;;;;0.70;0.30;;;;;;;18.49;40.38;101089.44;4732393;30;20044;-87
2022/11/18 06:51:10;;;;;;;0.30;0.30;;;;;;;18.51;40.44;101092.75;4739554;30;20038;-87
2022/11/18 06:53:35;;;;;;;0.30;0.30;;;;;;;18.50;40.48;101091.06;4753922;30;20454;-87
2022/11/18 06:56:12;;;;;;;0.52;0.28;;;;;;;18.52;40.36;101091.72;4739177;30;20493;-88
2022/11/18 06:58:38;;;;;;;0.40;0.30;;;;;;;18.52;40.42;101090.84;4753408;30;20142;-88
2022/11/18 07:01:17;;;;;;;0.45;0.30;;;;;;;18.55;40.34;101088.53;4739788;30;20063;-87
2022/11/18 07:03:43;;;;;;;0.20;0.20;;;;;;;18.49;40.41;101086.72;4739738;30;20039;-88
2022/11/18 07:06:09;;;;;;;0.30;0.30;;;;;;;18.52;40.22;101078.19;4739382;30;20032;-87
2022/11/18 07:08:36;;;;;;;0.40;0.30;;;;;;;18.53;40.77;101082.53;4739628;30;20612;-87
2022/11/18 07:11:04;;;;;;;1.35;0.30;;;;;;;18.53;40.42;101087.13;4740007;30;20119;-87
2022/11/18 07:13:31;;;;;;;0.20;0.20;;;;;;;18.53;40.27;101087.13;4739824;30;20122;-87
2022/11/18 07:16:10;;;;;;;0.30;0.30;;;;;;;18.54;40.12;101086.91;4739689;30;20062;-88
2022/11/18 07:18:37;;;;;;;0.52;0.38;;;;;;;18.53;40.31;101090.63;4740485;30;20102;-87
2022/11/18 07:21:07;;;;;;;0.32;0.32;;;;;;;18.53;40.31;101079.81;4739627;30;20442;-87
2022/11/18 07:23:33;;;;;;;0.30;0.28;;;;;;;18.50;40.27;101085.66;4754093;30;20482;-88
2022/11/18 07:25:59;;;;;;;0.32;0.30;;;;;;;18.53;40.32;101089.81;4739297;30;20036;-88
2022/11/18 07:28:25;;;;;;;0.30;0.30;;;;;;;18.51;40.25;101081.91;4739111;30;20529;-87
2022/11/18 07:30:50;;;;;;;1.10;0.47;;;;;;;18.49;40.29;101084.03;4753820;30;20089;-88
2022/11/18 07:33:16;;;;;;;0.40;0.40;;;;;;;18.49;40.34;101073.19;4739134;30;20028;-87
2022/11/18 07:35:42;;;;;;;0.28;0.28;;;;;;;18.53;40.36;101085.22;4754033;30;20048;-88
2022/11/18 07:38:07;;;;;;;0.45;0.30;;;;;;;18.47;40.28;101074.47;4739014;30;20038;-87
2022/11/18 07:40:33;;;;;;;1.00;0.40;;;;;;;18.48;40.24;101082.38;4753601;30;20109;-88
2022/11/18 07:42:59;;;;;;;0.25;0.25;;;;;;;18.53;40.47;101085.22;4753819;30;20032;-87
2022/11/18 07:45:24;;;;;;;0.35;0.32;;;;;;;18.53;40.35;101085.22;4753883;30;20161;-87
2022/11/18 07:47:50;;;;;;;0.30;0.30;;;;;;;18.52;40.26;101083.59;4738879;30;20475;-87
2022/11/18 07:50:16;;;;;;;0.38;0.30;;;;;;;18.48;40.30;101076.94;4739146;30;20554;-87
2022/11/18 07:52:42;;;;;;;0.30;0.30;;;;;;;18.51;40.37;101081.91;4753918;30;20075;-87
2022/11/18 07:55:08;;;;;;;0.30;0.20;;;;;;;18.50;40.28;101080.25;4753720;30;20066;-88
2022/11/18 07:57:34;;;;;;;1.17;0.30;;;;;;;18.50;40.26;101093.78;4738882;30;20407;-88
2022/11/18 08:00:00;;;;;;;0.30;0.30;;;;;;;18.51;40.21;101090.03;4738694;30;20027;-87
2022/11/18 08:02:25;;;;;;;0.35;0.28;;;;;;;18.51;40.30;101092.75;4738936;30;20063;-87
2022/11/18 08:04:51;;;;;;;0.30;0.30;;;;;;;18.52;40.24;101094.41;4753379;30;20036;-88
2022/11/18 08:07:16;;;;;;;0.30;0.30;;;;;;;18.52;40.26;101091.72;4739051;30;20055;-88
2022/11/18 08:09:42;;;;;;;0.80;0.25;;;;;;;18.51;40.35;101092.75;4753541;30;20119;-88
2022/11/18 08:12:07;;;;;;;0.40;0.40;;;;;;;18.48;40.22;101090.47;4738829;30;20023;-88
2022/11/18 08:14:33;;;;;;;0.30;0.30;;;;;;;18.51;40.22;101092.75;4753308;30;20024;-87
2022/11/18 08:16:59;;;;;;;0.60;0.32;;;;;;;18.51;40.12;101097.34;4738542;30;20126;-87
2022/11/18 08:19:24;;;;;;;0.50;0.30;;;;;;;18.54;40.12;101092.31;4738554;30;20039;-87
2022/11/18 08:21:50;;;;;;;0.57;0.30;;;;;;;18.54;40.18;101086.03;4738526;30;20111;-87
2022/11/18 08:24:16;;;;;;;0.30;0.30;;;;;;;18.50;40.30;101076.72;4738278;30;20544;-87
2022/11/18 08:26:41;;;;;;;0.35;0.30;;;;;;;18.53;40.33;101084.41;4738360;30;20039;-88
2022/11/18 08:29:07;;;;;;;0.30;0.30;;;;;;;18.51;40.27;101086.50;4738546;30;20032;-88
2022/11/18 08:31:32;;;;;;;0.68;0.28;;;;;;;18.52;40.28;101083.59;4752969;30;20031;-87
2022/11/18 08:34:00;;;;;;;0.98;0.50;;;;;;;18.51;40.21;101083.81;4738631;30;20094;-88
2022/11/18 08:36:28;;;;;;;0.50;0.40;;;;;;;18.51;40.23;101084.63;4738326;30;20376;-88
2022/11/18 08:38:58;;;;;;;0.30;0.30;;;;;;;18.54;40.19;101092.31;4752822;30;20043;-87
2022/11/18 08:41:28;;;;;;;1.10;0.30;;;;;;;18.55;40.21;101091.25;4738350;30;20070;-87
2022/11/18 08:43:53;;;;;;;0.22;0.20;;;;;;;18.54;40.26;101096.88;4752916;30;20107;-87
2022/11/18 08:46:19;;;;;;;0.22;0.20;;;;;;;18.53;40.26;101096.06;4738103;30;20028;-87
2022/11/18 08:48:48;;;;;;;0.25;0.25;;;;;;;18.55;40.07;101098.53;4752925;30;20071;-88
2022/11/18 08:51:14;;;;;;;1.00;0.30;;;;;;;18.50;40.21;101096.50;4738191;30;20532;-88
2022/11/18 08:53:40;;;;;;;0.38;0.30;;;;;;;18.54;40.26;101103.13;4738214;30;20043;-87
2022/11/18 08:56:06;;;;;;;0.80;0.20;;;;;;;18.51;40.10;101103.56;4738321;30;20044;-87
2022/11/18 08:58:32;;;;;;;0.30;0.30;;;;;;;18.54;40.21;101108.56;4738051;30;20039;-87
2022/11/18 09:00:58;;;;;;;0.25;0.25;;;;;;;18.52;40.11;101107.94;4737923;30;20038;-88
2022/11/18 09:03:23;;;;;;;0.45;0.30;;;;;;;18.53;40.13;101115.00;4738093;30;20032;-88
2022/11/18 09:05:49;;;;;;;0.38;0.30;;;;;;;18.54;40.09;101115.81;4752624;30;20028;-87
2022/11/18 09:08:18;;;;;;;0.47;0.40;;;;;;;18.52;40.14;101109.81;4738181;30;20052;-88
2022/11/18 09:10:44;;;;;;;0.30;0.30;;;;;;;18.53;40.06;101112.28;4738667;30;20395;-87
2022/11/18 09:13:10;;;;;;;0.40;0.35;;;;;;;18.54;40.02;101118.53;4723354;30;20119;-88
2022/11/18 09:15:35;;;;;;;0.40;0.40;;;;;;;18.52;40.02;101110.66;4723337;30;20559;-87
2022/11/18 09:18:01;;;;;;;0.50;0.30;;;;;;;18.53;39.95;101100.66;4752400;30;20070;-88
2022/11/18 09:20:26;;;;;;;0.20;0.20;;;;;;;18.54;40.04;101100.44;4752766;30;20054;-88
2022/11/18 09:22:52;;;;;;;0.30;0.30;;;;;;;18.52;39.96;101099.84;4737687;30;20548;-87
2022/11/18 09:25:18;;;;;;;0.30;0.30;;;;;;;18.52;40.00;101104.41;4752351;30;20392;-88
2022/11/18 09:27:44;;;;;;;0.85;0.32;;;;;;;18.54;39.93;101103.13;4737940;30;20034;-88
2022/11/18 09:30:09;;;;;;;0.30;0.30;;;;;;;18.49;40.08;101089.44;4752124;30;20071;-88
2022/11/18 09:32:35;;;;;;;0.90;0.40;;;;;;;18.55;40.20;101098.53;4754566;30;20207;-88
2022/11/18 09:35:01;;;;;;;0.82;0.40;;;;;;;18.57;40.01;101105.41;4740944;30;20051;-88
2022/11/18 09:37:27;;;;;;;0.38;0.25;;;;;;;18.52;39.97;101099.84;4740900;30;20038;-88
2022/11/18 09:39:52;;;;;;;0.77;0.50;;;;;;;18.56;40.25;101105.63;4741215;30;20563;-87
2022/11/18 09:42:31;;;;;;;0.57;0.28;;;;;;;18.57;40.11;101101.84;4726206;30;20270;-87
2022/11/18 09:45:06;;;;;;;0.65;0.35;;;;;;;18.55;40.04;101099.34;4740939;30;20117;-88
2022/11/18 09:47:33;;;;;;;0.43;0.43;;;;;;;18.57;39.99;101100.00;4742015;30;20034;-87
2022/11/18 09:50:12;;;;;;;0.20;0.20;;;;;;;18.57;40.09;101100.00;4740851;30;20039;-87
2022/11/18 09:53:05;;;;;;;0.68;0.40;;;;;;;18.56;40.04;101100.22;4755666;30;20059;-88
2022/11/18 09:55:31;;;;;;;1.35;0.40;;;;;;;18.54;39.90;101099.56;4755319;30;20039;-87
2022/11/18 09:57:57;;;;;;;0.20;0.20;;;;;;;18.54;39.75;101097.72;4740699;30;20395;-87
2022/11/18 10:00:25;;;;;;;0.30;0.30;;;;;;;18.55;39.87;101096.66;4740473;30;20117;-86
2022/11/18 10:03:01;;;;;;;0.70;0.30;;;;;;;18.55;39.80;101103.94;4741217;30;20042;-87
2022/11/18 10:05:29;;;;;;;0.75;0.30;;;;;;;18.52;39.65;101094.41;4741266;30;20032;-88
2022/11/18 10:08:00;;;;;;;0.88;0.30;;;;;;;18.52;39.68;101099.84;4740699;30;20035;-88
2022/11/18 10:10:47;;;;;;;0.45;0.40;;;;;;;18.55;39.75;101099.34;4739939;30;20039;-87
2022/11/18 10:13:16;;;;;;;1.02;0.30;;;;;;;18.55;39.70;101106.66;4754537;30;20111;-87
2022/11/18 10:15:52;;;;;;;0.40;0.30;;;;;;;18.52;39.65;101094.41;4770497;30;20062;-87
2022/11/18 10:18:33;;;;;;;0.30;0.30;;;;;;;18.53;39.45;101106.88;4739957;30;20040;-87
2022/11/18 10:21:43;;;;;;;1.00;0.30;;;;;;;18.54;39.53;101105.84;4740422;30;20123;-87
2022/11/18 10:24:18;;;;;;;0.68;0.32;;;;;;;18.56;39.47;101106.44;4757305;30;20125;-87
2022/11/18 10:26:43;;;;;;;0.40;0.30;;;;;;;18.54;39.72;101105.00;4754627;30;20106;-87
2022/11/18 10:29:09;;;;;;;0.68;0.30;;;;;;;18.55;39.71;101107.47;4739510;30;20448;-87
2022/11/18 10:32:03;;;;;;;1.05;0.40;;;;;;;18.57;39.74;101102.69;4754718;30;20024;-87
2022/11/18 10:34:29;;;;;;;0.20;0.20;;;;;;;18.58;39.69;101104.34;4738717;30;20122;-87
2022/11/18 10:37:06;;;;;;;0.20;0.20;;;;;;;18.55;39.67;101099.34;4739655;30;20120;-87
2022/11/18 10:39:32;;;;;;;1.13;0.20;;;;;;;18.56;39.81;101113.75;4754880;30;20036;-87
2022/11/18 10:42:09;;;;;;;0.57;0.40;;;;;;;18.54;39.78;101092.31;4739632;30;20044;-87
2022/11/18 10:44:36;;;;;;;0.30;0.30;;;;;;;18.58;39.69;101101.63;4740163;30;20407;-87
2022/11/18 10:47:25;;;;;;;0.25;0.20;;;;;;;18.56;39.56;101098.31;4754534;30;20032;-86
2022/11/18 10:49:51;;;;;;;0.60;0.30;;;;;;;18.56;39.88;101102.91;4754777;30;20053;-88
2022/11/18 10:52:17;;;;;;;0.52;0.40;;;;;;;18.54;39.64;101091.47;4739813;30;20533;-87
2022/11/18 10:54:42;;;;;;;0.30;0.30;;;;;;;18.54;39.57;101099.56;4740108;30;20035;-87
2022/11/18 10:57:20;;;;;;;0.43;0.35;;;;;;;18.56;39.81;101095.63;4755029;30;20028;-87
2022/11/18 10:59:50;;;;;;;0.55;0.43;;;;;;;18.53;39.72;101096.06;4739842;30;20105;-87
2022/11/18 11:02:18;;;;;;;0.60;0.40;;;;;;;18.57;39.47;101096.44;4740072;30;20507;-87
2022/11/18 11:04:45;;;;;;;0.70;0.30;;;;;;;18.55;39.63;101099.34;4725393;30;20553;-87
2022/11/18 11:07:23;;;;;;;0.30;0.30;;;;;;;18.55;39.41;101099.34;4740051;30;20059;-87
2022/11/18 11:10:07;;;;;;;0.28;0.28;;;;;;;18.56;39.47;101101.03;4740862;30;20067;-87
2022/11/18 11:12:37;;;;;;;0.20;0.20;;;;;;;18.53;39.53;101090.63;4770250;30;20164;-87
2022/11/18 11:15:09;;;;;;;0.22;0.22;;;;;;;18.56;39.59;101101.03;4739969;30;20028;-87
2022/11/18 11:17:37;;;;;;;0.40;0.30;;;;;;;18.56;39.67;101106.44;4739972;30;20063;-87
2022/11/18 11:20:26;;;;;;;0.30;0.30;;;;;;;18.55;39.70;101104.78;4739782;30;20031;-87
2022/11/18 11:22:53;;;;;;;0.50;0.30;;;;;;;18.55;39.38;101102.06;4746929;30;20048;-87
2022/11/18 11:25:31;;;;;;;0.93;0.40;;;;;;;18.56;39.60;101103.72;4724639;30;20019;-87
2022/11/18 11:28:06;;;;;;;0.47;0.30;;;;;;;18.56;39.65;101106.44;4753976;30;20059;-87
2022/11/18 11:30:37;;;;;;;1.45;0.30;;;;;;;18.56;39.54;101094.78;4754406;30;20106;-87
2022/11/18 11:33:20;;;;;;;0.30;0.30;;;;;;;18.54;39.36;101103.13;4739396;30;20531;-87
2022/11/18 11:36:22;;;;;;;0.30;0.30;;;;;;;18.57;39.44;101112.69;4739846;30;20050;-87
2022/11/18 11:39:05;;;;;;;0.90;0.20;;;;;;;18.53;39.50;101106.88;4769784;30;20124;-87
2022/11/18 11:41:37;;;;;;;0.75;0.35;;;;;;;18.55;39.54;101110.19;4740114;30;20032;-87
2022/11/18 11:44:16;;;;;;;0.60;0.30;;;;;;;18.56;39.55;101111.84;4739271;30;20082;-87
2022/11/18 11:47:45;;;;;;;0.32;0.32;;;;;;;18.58;39.66;101108.94;4739795;30;20621;-87